sensor_id;sensor_type;location;lat;lon;timestamp;temperature;humidity
45765;DHT22;31474;45.332;10.230;2023-05-29T00:01:44;22.20;99.90
45765;DHT22;31474;45.332;10.230;2023-05-29T00:04:11;22.20;99.90
45765;DHT22;31474;45.332;10.230;2023-05-29T00:06:37;22.20;99.90
45765;DHT22;31474;45.332;10.230;2023-05-29T00:09:03;22.20;99.90
45765;DHT22;31474;45.332;10.230;2023-05-29T00:11:29;22.10;99.90
45765;DHT22;31474;45.332;10.230;2023-05-29T00:13:55;22.10;99.90
45765;DHT22;31474;45.332;10.230;2023-05-29T00:16:22;22.20;99.90
45765;DHT22;31474;45.332;10.230;2023-05-29T00:18:49;22.20;99.90
45765;DHT22;31474;45.332;10.230;2023-05-29T00:21:16;22.20;99.90
45765;DHT22;31474;45.332;10.230;2023-05-29T00:23:42;22.20;99.90
45765;DHT22;31474;45.332;10.230;2023-05-29T00:26:08;22.20;99.90
45765;DHT22;31474;45.332;10.230;2023-05-29T00:28:36;22.20;99.90
45765;DHT22;31474;45.332;10.230;2023-05-29T00:31:02;22.20;99.90
45765;DHT22;31474;45.332;10.230;2023-05-29T00:33:28;22.20;99.90
45765;DHT22;31474;45.332;10.230;2023-05-29T00:35:53;22.20;99.90
45765;DHT22;31474;45.332;10.230;2023-05-29T00:38:19;22.20;99.90
45765;DHT22;31474;45.332;10.230;2023-05-29T00:40:45;22.30;99.90
45765;DHT22;31474;45.332;10.230;2023-05-29T00:43:10;22.30;99.90
45765;DHT22;31474;45.332;10.230;2023-05-29T00:45:37;22.30;99.90
45765;DHT22;31474;45.332;10.230;2023-05-29T00:48:04;22.30;99.90
45765;DHT22;31474;45.332;10.230;2023-05-29T00:50:30;22.30;99.90
45765;DHT22;31474;45.332;10.230;2023-05-29T00:52:57;22.20;99.90
45765;DHT22;31474;45.332;10.230;2023-05-29T00:55:24;22.30;99.90
45765;DHT22;31474;45.332;10.230;2023-05-29T00:57:49;22.20;99.90
45765;DHT22;31474;45.332;10.230;2023-05-29T01:00:16;22.20;99.90
45765;DHT22;31474;45.332;10.230;2023-05-29T01:02:42;22.20;99.90
45765;DHT22;31474;45.332;10.230;2023-05-29T01:05:13;22.20;99.90
45765;DHT22;31474;45.332;10.230;2023-05-29T01:07:41;22.10;99.90
45765;DHT22;31474;45.332;10.230;2023-05-29T01:10:08;22.20;99.90
45765;DHT22;31474;45.332;10.230;2023-05-29T01:12:50;22.10;99.90
45765;DHT22;31474;45.332;10.230;2023-05-29T01:15:52;22.10;99.90
45765;DHT22;31474;45.332;10.230;2023-05-29T01:18:34;22.10;99.90
45765;DHT22;31474;45.332;10.230;2023-05-29T01:24:08;22.00;99.90
45765;DHT22;31474;45.332;10.230;2023-05-29T01:29:15;22.10;99.90
45765;DHT22;31474;45.332;10.230;2023-05-29T01:31:43;22.20;99.90
45765;DHT22;31474;45.332;10.230;2023-05-29T01:34:09;22.20;99.90
45765;DHT22;31474;45.332;10.230;2023-05-29T01:36:35;22.20;99.90
45765;DHT22;31474;45.332;10.230;2023-05-29T01:39:01;22.20;99.90
45765;DHT22;31474;45.332;10.230;2023-05-29T01:41:28;22.30;99.90
45765;DHT22;31474;45.332;10.230;2023-05-29T01:43:56;22.30;99.90
45765;DHT22;31474;45.332;10.230;2023-05-29T01:46:23;22.30;99.90
45765;DHT22;31474;45.332;10.230;2023-05-29T01:48:51;22.30;99.90
45765;DHT22;31474;45.332;10.230;2023-05-29T01:51:18;22.30;99.90
45765;DHT22;31474;45.332;10.230;2023-05-29T01:53:44;22.30;99.90
45765;DHT22;31474;45.332;10.230;2023-05-29T01:56:10;22.30;99.90
45765;DHT22;31474;45.332;10.230;2023-05-29T01:58:37;22.30;99.90
45765;DHT22;31474;45.332;10.230;2023-05-29T02:01:05;22.20;99.90
45765;DHT22;31474;45.332;10.230;2023-05-29T02:03:32;22.20;99.90
45765;DHT22;31474;45.332;10.230;2023-05-29T02:05:59;22.20;99.90
45765;DHT22;31474;45.332;10.230;2023-05-29T02:08:25;22.20;99.90
45765;DHT22;31474;45.332;10.230;2023-05-29T02:10:51;22.20;99.90
45765;DHT22;31474;45.332;10.230;2023-05-29T02:13:16;22.20;99.90
45765;DHT22;31474;45.332;10.230;2023-05-29T02:15:43;22.20;99.90
45765;DHT22;31474;45.332;10.230;2023-05-29T02:18:10;22.20;99.90
45765;DHT22;31474;45.332;10.230;2023-05-29T02:20:39;22.10;99.90
45765;DHT22;31474;45.332;10.230;2023-05-29T02:23:05;22.10;99.90
45765;DHT22;31474;45.332;10.230;2023-05-29T02:25:31;22.00;99.90
45765;DHT22;31474;45.332;10.230;2023-05-29T02:27:56;22.00;99.90
45765;DHT22;31474;45.332;10.230;2023-05-29T02:30:22;22.00;99.90
45765;DHT22;31474;45.332;10.230;2023-05-29T02:32:48;21.90;99.90
45765;DHT22;31474;45.332;10.230;2023-05-29T02:35:13;21.90;99.90
45765;DHT22;31474;45.332;10.230;2023-05-29T02:37:41;21.80;99.90
45765;DHT22;31474;45.332;10.230;2023-05-29T02:40:07;21.70;99.90
45765;DHT22;31474;45.332;10.230;2023-05-29T02:42:36;21.70;99.90
45765;DHT22;31474;45.332;10.230;2023-05-29T02:45:02;21.60;99.90
45765;DHT22;31474;45.332;10.230;2023-05-29T02:47:27;21.60;99.90
45765;DHT22;31474;45.332;10.230;2023-05-29T02:49:53;21.50;99.90
45765;DHT22;31474;45.332;10.230;2023-05-29T02:52:18;21.50;99.90
45765;DHT22;31474;45.332;10.230;2023-05-29T02:54:44;21.50;99.90
45765;DHT22;31474;45.332;10.230;2023-05-29T02:57:10;21.40;99.90
45765;DHT22;31474;45.332;10.230;2023-05-29T02:59:35;21.50;99.90
45765;DHT22;31474;45.332;10.230;2023-05-29T03:02:01;21.50;99.90
45765;DHT22;31474;45.332;10.230;2023-05-29T03:04:27;21.50;99.90
45765;DHT22;31474;45.332;10.230;2023-05-29T03:06:53;21.40;99.90
45765;DHT22;31474;45.332;10.230;2023-05-29T03:09:19;21.40;99.90
45765;DHT22;31474;45.332;10.230;2023-05-29T03:11:45;21.40;99.90
45765;DHT22;31474;45.332;10.230;2023-05-29T03:14:13;21.30;99.90
45765;DHT22;31474;45.332;10.230;2023-05-29T03:16:39;21.30;99.90
45765;DHT22;31474;45.332;10.230;2023-05-29T03:19:06;21.30;99.90
45765;DHT22;31474;45.332;10.230;2023-05-29T03:21:33;21.30;99.90
45765;DHT22;31474;45.332;10.230;2023-05-29T03:23:59;21.20;99.90
45765;DHT22;31474;45.332;10.230;2023-05-29T03:26:25;21.20;99.90
45765;DHT22;31474;45.332;10.230;2023-05-29T03:28:51;21.10;99.90
45765;DHT22;31474;45.332;10.230;2023-05-29T03:31:16;21.00;99.90
45765;DHT22;31474;45.332;10.230;2023-05-29T03:33:42;20.80;99.90
45765;DHT22;31474;45.332;10.230;2023-05-29T03:36:08;20.70;99.90
45765;DHT22;31474;45.332;10.230;2023-05-29T03:38:34;20.50;99.90
45765;DHT22;31474;45.332;10.230;2023-05-29T03:41:00;20.40;99.90
45765;DHT22;31474;45.332;10.230;2023-05-29T03:43:25;20.20;99.90
45765;DHT22;31474;45.332;10.230;2023-05-29T03:45:51;20.00;99.90
45765;DHT22;31474;45.332;10.230;2023-05-29T03:48:16;20.00;99.90
45765;DHT22;31474;45.332;10.230;2023-05-29T03:50:42;20.00;99.90
45765;DHT22;31474;45.332;10.230;2023-05-29T03:53:08;20.00;99.90
45765;DHT22;31474;45.332;10.230;2023-05-29T03:55:33;20.10;99.90
45765;DHT22;31474;45.332;10.230;2023-05-29T03:57:59;20.10;99.90
45765;DHT22;31474;45.332;10.230;2023-05-29T04:00:24;20.10;99.90
45765;DHT22;31474;45.332;10.230;2023-05-29T04:02:51;20.10;99.90
45765;DHT22;31474;45.332;10.230;2023-05-29T04:05:16;20.20;99.90
45765;DHT22;31474;45.332;10.230;2023-05-29T04:07:42;20.10;99.90
45765;DHT22;31474;45.332;10.230;2023-05-29T04:10:08;20.10;99.90
45765;DHT22;31474;45.332;10.230;2023-05-29T04:12:34;20.20;99.90
45765;DHT22;31474;45.332;10.230;2023-05-29T04:15:00;20.10;99.90
45765;DHT22;31474;45.332;10.230;2023-05-29T04:17:26;20.10;99.90
45765;DHT22;31474;45.332;10.230;2023-05-29T04:19:51;20.10;99.90
45765;DHT22;31474;45.332;10.230;2023-05-29T04:22:17;20.10;99.90
45765;DHT22;31474;45.332;10.230;2023-05-29T04:24:43;20.10;99.90
45765;DHT22;31474;45.332;10.230;2023-05-29T04:27:09;20.10;99.90
45765;DHT22;31474;45.332;10.230;2023-05-29T04:29:39;20.00;99.90
45765;DHT22;31474;45.332;10.230;2023-05-29T04:32:06;20.00;99.90
45765;DHT22;31474;45.332;10.230;2023-05-29T04:34:34;20.10;99.90
45765;DHT22;31474;45.332;10.230;2023-05-29T04:37:00;20.10;99.90
45765;DHT22;31474;45.332;10.230;2023-05-29T04:39:25;20.10;99.90
45765;DHT22;31474;45.332;10.230;2023-05-29T04:41:51;20.20;99.90
45765;DHT22;31474;45.332;10.230;2023-05-29T04:44:17;20.20;99.90
45765;DHT22;31474;45.332;10.230;2023-05-29T04:46:43;20.30;99.90
45765;DHT22;31474;45.332;10.230;2023-05-29T04:49:10;20.30;99.90
45765;DHT22;31474;45.332;10.230;2023-05-29T04:51:38;20.40;99.90
45765;DHT22;31474;45.332;10.230;2023-05-29T04:54:06;20.50;99.90
45765;DHT22;31474;45.332;10.230;2023-05-29T04:56:32;20.50;99.90
45765;DHT22;31474;45.332;10.230;2023-05-29T04:58:58;20.60;99.90
45765;DHT22;31474;45.332;10.230;2023-05-29T05:01:24;20.60;99.90
45765;DHT22;31474;45.332;10.230;2023-05-29T05:03:51;20.60;99.90
45765;DHT22;31474;45.332;10.230;2023-05-29T05:06:19;20.70;99.90
45765;DHT22;31474;45.332;10.230;2023-05-29T05:08:45;20.70;99.90
45765;DHT22;31474;45.332;10.230;2023-05-29T05:11:11;20.60;99.90
45765;DHT22;31474;45.332;10.230;2023-05-29T05:13:36;20.60;99.90
45765;DHT22;31474;45.332;10.230;2023-05-29T05:16:02;20.60;99.90
45765;DHT22;31474;45.332;10.230;2023-05-29T05:18:28;20.70;99.90
45765;DHT22;31474;45.332;10.230;2023-05-29T05:20:54;20.70;99.90
45765;DHT22;31474;45.332;10.230;2023-05-29T05:23:19;20.70;99.90
45765;DHT22;31474;45.332;10.230;2023-05-29T05:25:45;20.60;99.90
45765;DHT22;31474;45.332;10.230;2023-05-29T05:28:11;20.70;99.90
45765;DHT22;31474;45.332;10.230;2023-05-29T05:30:36;20.60;99.90
45765;DHT22;31474;45.332;10.230;2023-05-29T05:33:02;20.60;99.90
45765;DHT22;31474;45.332;10.230;2023-05-29T05:35:29;20.50;99.90
45765;DHT22;31474;45.332;10.230;2023-05-29T05:37:54;20.50;99.90
45765;DHT22;31474;45.332;10.230;2023-05-29T05:40:23;20.50;99.90
45765;DHT22;31474;45.332;10.230;2023-05-29T05:42:49;20.40;99.90
45765;DHT22;31474;45.332;10.230;2023-05-29T05:45:15;20.40;99.90
45765;DHT22;31474;45.332;10.230;2023-05-29T05:47:40;20.40;99.90
45765;DHT22;31474;45.332;10.230;2023-05-29T05:50:06;20.50;99.90
45765;DHT22;31474;45.332;10.230;2023-05-29T05:52:32;20.40;99.90
45765;DHT22;31474;45.332;10.230;2023-05-29T05:54:59;20.40;99.90
45765;DHT22;31474;45.332;10.230;2023-05-29T05:57:24;20.40;99.90
45765;DHT22;31474;45.332;10.230;2023-05-29T05:59:51;20.50;99.90
45765;DHT22;31474;45.332;10.230;2023-05-29T06:02:16;20.70;99.90
45765;DHT22;31474;45.332;10.230;2023-05-29T06:04:42;20.80;99.90
45765;DHT22;31474;45.332;10.230;2023-05-29T06:07:09;20.90;99.90
45765;DHT22;31474;45.332;10.230;2023-05-29T06:09:34;20.90;99.90
45765;DHT22;31474;45.332;10.230;2023-05-29T06:12:00;21.00;99.90
45765;DHT22;31474;45.332;10.230;2023-05-29T06:14:27;21.10;99.90
45765;DHT22;31474;45.332;10.230;2023-05-29T06:16:52;21.20;99.90
45765;DHT22;31474;45.332;10.230;2023-05-29T06:19:19;21.10;99.90
45765;DHT22;31474;45.332;10.230;2023-05-29T06:21:44;21.30;99.90
45765;DHT22;31474;45.332;10.230;2023-05-29T06:24:10;21.40;99.90
45765;DHT22;31474;45.332;10.230;2023-05-29T06:26:36;21.60;99.90
45765;DHT22;31474;45.332;10.230;2023-05-29T06:29:02;21.60;99.90
45765;DHT22;31474;45.332;10.230;2023-05-29T06:31:28;21.70;99.90
45765;DHT22;31474;45.332;10.230;2023-05-29T06:33:54;21.70;99.90
45765;DHT22;31474;45.332;10.230;2023-05-29T06:36:20;21.70;99.90
45765;DHT22;31474;45.332;10.230;2023-05-29T06:38:52;21.80;99.90
45765;DHT22;31474;45.332;10.230;2023-05-29T06:41:18;21.90;99.90
45765;DHT22;31474;45.332;10.230;2023-05-29T06:43:44;22.10;99.90
45765;DHT22;31474;45.332;10.230;2023-05-29T06:46:10;22.50;99.90
45765;DHT22;31474;45.332;10.230;2023-05-29T06:48:36;22.80;99.90
45765;DHT22;31474;45.332;10.230;2023-05-29T06:51:02;23.20;99.60
45765;DHT22;31474;45.332;10.230;2023-05-29T06:53:40;23.50;99.70
45765;DHT22;31474;45.332;10.230;2023-05-29T06:56:06;23.50;99.20
45765;DHT22;31474;45.332;10.230;2023-05-29T06:58:32;23.60;99.30
45765;DHT22;31474;45.332;10.230;2023-05-29T07:00:58;23.60;99.20
45765;DHT22;31474;45.332;10.230;2023-05-29T07:03:27;23.60;99.60
45765;DHT22;31474;45.332;10.230;2023-05-29T07:05:53;23.60;99.40
45765;DHT22;31474;45.332;10.230;2023-05-29T07:08:19;23.60;99.60
45765;DHT22;31474;45.332;10.230;2023-05-29T07:10:45;23.60;99.80
45765;DHT22;31474;45.332;10.230;2023-05-29T07:13:15;23.60;99.90
45765;DHT22;31474;45.332;10.230;2023-05-29T07:15:40;23.50;99.90
45765;DHT22;31474;45.332;10.230;2023-05-29T07:18:06;23.40;99.90
45765;DHT22;31474;45.332;10.230;2023-05-29T07:20:31;23.50;99.90
45765;DHT22;31474;45.332;10.230;2023-05-29T07:22:57;23.60;99.90
45765;DHT22;31474;45.332;10.230;2023-05-29T07:25:23;23.50;99.90
45765;DHT22;31474;45.332;10.230;2023-05-29T07:27:48;23.60;99.90
45765;DHT22;31474;45.332;10.230;2023-05-29T07:30:14;23.60;99.90
45765;DHT22;31474;45.332;10.230;2023-05-29T07:32:40;23.60;99.90
45765;DHT22;31474;45.332;10.230;2023-05-29T07:35:06;23.60;99.90
45765;DHT22;31474;45.332;10.230;2023-05-29T07:37:32;23.70;99.90
45765;DHT22;31474;45.332;10.230;2023-05-29T07:39:58;23.70;99.90
45765;DHT22;31474;45.332;10.230;2023-05-29T07:42:23;23.80;99.90
45765;DHT22;31474;45.332;10.230;2023-05-29T07:44:49;23.90;99.90
45765;DHT22;31474;45.332;10.230;2023-05-29T07:47:15;24.10;99.90
45765;DHT22;31474;45.332;10.230;2023-05-29T07:49:40;24.30;99.90
45765;DHT22;31474;45.332;10.230;2023-05-29T07:52:06;24.60;99.90
45765;DHT22;31474;45.332;10.230;2023-05-29T07:54:32;24.80;99.90
45765;DHT22;31474;45.332;10.230;2023-05-29T07:56:59;25.10;99.80
45765;DHT22;31474;45.332;10.230;2023-05-29T07:59:25;25.40;99.60
45765;DHT22;31474;45.332;10.230;2023-05-29T08:01:51;25.70;99.30
45765;DHT22;31474;45.332;10.230;2023-05-29T08:04:17;25.90;99.40
45765;DHT22;31474;45.332;10.230;2023-05-29T08:06:43;26.10;98.70
45765;DHT22;31474;45.332;10.230;2023-05-29T08:09:09;26.30;99.10
45765;DHT22;31474;45.332;10.230;2023-05-29T08:11:36;26.50;98.60
45765;DHT22;31474;45.332;10.230;2023-05-29T08:14:02;26.40;98.50
45765;DHT22;31474;45.332;10.230;2023-05-29T08:16:27;26.40;98.40
45765;DHT22;31474;45.332;10.230;2023-05-29T08:18:53;26.40;98.20
45765;DHT22;31474;45.332;10.230;2023-05-29T08:21:19;26.40;97.80
45765;DHT22;31474;45.332;10.230;2023-05-29T08:23:45;26.40;98.40
45765;DHT22;31474;45.332;10.230;2023-05-29T08:26:10;26.50;98.00
45765;DHT22;31474;45.332;10.230;2023-05-29T08:28:36;26.50;98.10
45765;DHT22;31474;45.332;10.230;2023-05-29T08:31:01;26.60;98.00
45765;DHT22;31474;45.332;10.230;2023-05-29T08:33:27;26.80;98.40
45765;DHT22;31474;45.332;10.230;2023-05-29T08:35:53;26.90;98.00
45765;DHT22;31474;45.332;10.230;2023-05-29T08:38:19;27.00;97.80
45765;DHT22;31474;45.332;10.230;2023-05-29T08:40:47;27.10;98.10
45765;DHT22;31474;45.332;10.230;2023-05-29T08:43:17;27.10;97.60
45765;DHT22;31474;45.332;10.230;2023-05-29T08:45:46;27.20;98.10
45765;DHT22;31474;45.332;10.230;2023-05-29T08:48:13;27.20;97.70
45765;DHT22;31474;45.332;10.230;2023-05-29T08:50:46;27.30;97.20
45765;DHT22;31474;45.332;10.230;2023-05-29T08:53:13;27.30;96.70
45765;DHT22;31474;45.332;10.230;2023-05-29T08:55:38;27.40;97.00
45765;DHT22;31474;45.332;10.230;2023-05-29T08:58:05;27.60;97.20
45765;DHT22;31474;45.332;10.230;2023-05-29T09:00:31;27.60;96.70
45765;DHT22;31474;45.332;10.230;2023-05-29T09:02:57;27.60;96.20
45765;DHT22;31474;45.332;10.230;2023-05-29T09:05:24;27.70;96.70
45765;DHT22;31474;45.332;10.230;2023-05-29T09:07:56;27.80;96.80
45765;DHT22;31474;45.332;10.230;2023-05-29T09:10:22;27.80;96.00
45765;DHT22;31474;45.332;10.230;2023-05-29T09:12:48;27.70;95.60
45765;DHT22;31474;45.332;10.230;2023-05-29T09:15:21;27.70;96.50
45765;DHT22;31474;45.332;10.230;2023-05-29T09:17:51;27.70;96.80
45765;DHT22;31474;45.332;10.230;2023-05-29T09:20:18;27.80;96.90
45765;DHT22;31474;45.332;10.230;2023-05-29T09:22:54;27.80;95.80
45765;DHT22;31474;45.332;10.230;2023-05-29T09:25:28;27.80;96.10
45765;DHT22;31474;45.332;10.230;2023-05-29T09:27:59;27.80;95.80
45765;DHT22;31474;45.332;10.230;2023-05-29T09:30:47;27.70;96.00
45765;DHT22;31474;45.332;10.230;2023-05-29T09:33:14;27.80;95.20
45765;DHT22;31474;45.332;10.230;2023-05-29T09:35:45;27.90;95.60
45765;DHT22;31474;45.332;10.230;2023-05-29T09:38:12;28.00;96.10
45765;DHT22;31474;45.332;10.230;2023-05-29T09:40:40;27.90;94.90
45765;DHT22;31474;45.332;10.230;2023-05-29T09:45:48;28.00;94.80
45765;DHT22;31474;45.332;10.230;2023-05-29T09:48:16;28.00;94.10
45765;DHT22;31474;45.332;10.230;2023-05-29T09:50:43;28.00;95.60
45765;DHT22;31474;45.332;10.230;2023-05-29T09:53:18;28.10;95.40
45765;DHT22;31474;45.332;10.230;2023-05-29T09:55:48;28.30;94.70
45765;DHT22;31474;45.332;10.230;2023-05-29T09:58:15;28.10;95.10
45765;DHT22;31474;45.332;10.230;2023-05-29T10:00:44;28.10;94.40
45765;DHT22;31474;45.332;10.230;2023-05-29T10:03:11;28.10;95.20
45765;DHT22;31474;45.332;10.230;2023-05-29T10:05:41;28.10;94.70
45765;DHT22;31474;45.332;10.230;2023-05-29T10:08:11;28.10;94.70
45765;DHT22;31474;45.332;10.230;2023-05-29T10:10:41;28.20;94.70
45765;DHT22;31474;45.332;10.230;2023-05-29T10:13:11;28.20;95.30
45765;DHT22;31474;45.332;10.230;2023-05-29T10:15:37;28.40;95.70
45765;DHT22;31474;45.332;10.230;2023-05-29T10:18:31;28.50;95.00
45765;DHT22;31474;45.332;10.230;2023-05-29T10:20:56;28.50;94.20
45765;DHT22;31474;45.332;10.230;2023-05-29T10:23:25;28.40;94.80
45765;DHT22;31474;45.332;10.230;2023-05-29T10:25:55;28.50;94.90
45765;DHT22;31474;45.332;10.230;2023-05-29T10:28:22;28.60;95.20
45765;DHT22;31474;45.332;10.230;2023-05-29T10:31:03;28.60;94.60
45765;DHT22;31474;45.332;10.230;2023-05-29T10:36:18;28.50;92.30
45765;DHT22;31474;45.332;10.230;2023-05-29T10:38:45;28.60;94.50
45765;DHT22;31474;45.332;10.230;2023-05-29T10:43:56;28.70;94.00
45765;DHT22;31474;45.332;10.230;2023-05-29T10:49:18;28.60;93.00
45765;DHT22;31474;45.332;10.230;2023-05-29T10:51:44;28.60;92.30
45765;DHT22;31474;45.332;10.230;2023-05-29T10:54:10;28.60;93.60
45765;DHT22;31474;45.332;10.230;2023-05-29T10:56:36;28.60;92.80
45765;DHT22;31474;45.332;10.230;2023-05-29T10:59:02;28.70;93.90
45765;DHT22;31474;45.332;10.230;2023-05-29T11:01:29;28.70;93.80
45765;DHT22;31474;45.332;10.230;2023-05-29T11:06:43;28.90;93.50
45765;DHT22;31474;45.332;10.230;2023-05-29T11:09:32;29.00;93.90
45765;DHT22;31474;45.332;10.230;2023-05-29T11:15:06;29.20;94.00
45765;DHT22;31474;45.332;10.230;2023-05-29T11:20:09;29.20;93.10
45765;DHT22;31474;45.332;10.230;2023-05-29T11:23:03;29.30;93.30
45765;DHT22;31474;45.332;10.230;2023-05-29T11:25:30;29.20;93.10
45765;DHT22;31474;45.332;10.230;2023-05-29T11:27:59;29.30;93.90
45765;DHT22;31474;45.332;10.230;2023-05-29T11:30:25;29.20;93.60
45765;DHT22;31474;45.332;10.230;2023-05-29T11:32:52;28.80;93.00
45765;DHT22;31474;45.332;10.230;2023-05-29T11:35:21;28.60;92.60
45765;DHT22;31474;45.332;10.230;2023-05-29T11:37:47;28.70;93.80
45765;DHT22;31474;45.332;10.230;2023-05-29T11:40:15;28.80;94.40
45765;DHT22;31474;45.332;10.230;2023-05-29T11:42:45;29.00;94.40
45765;DHT22;31474;45.332;10.230;2023-05-29T11:45:18;28.90;93.20
45765;DHT22;31474;45.332;10.230;2023-05-29T11:48:05;28.90;93.50
45765;DHT22;31474;45.332;10.230;2023-05-29T11:50:31;28.80;92.30
45765;DHT22;31474;45.332;10.230;2023-05-29T11:52:59;28.60;92.20
45765;DHT22;31474;45.332;10.230;2023-05-29T11:55:26;28.60;93.80
45765;DHT22;31474;45.332;10.230;2023-05-29T11:57:57;28.80;93.70
45765;DHT22;31474;45.332;10.230;2023-05-29T12:00:25;28.90;92.90
45765;DHT22;31474;45.332;10.230;2023-05-29T12:02:51;29.00;93.80
45765;DHT22;31474;45.332;10.230;2023-05-29T12:05:17;29.10;93.20
45765;DHT22;31474;45.332;10.230;2023-05-29T12:07:51;29.20;93.30
45765;DHT22;31474;45.332;10.230;2023-05-29T12:10:19;29.20;92.10
45765;DHT22;31474;45.332;10.230;2023-05-29T12:15:19;29.10;90.70
45765;DHT22;31474;45.332;10.230;2023-05-29T12:17:45;28.90;91.60
45765;DHT22;31474;45.332;10.230;2023-05-29T12:20:12;28.90;93.10
45765;DHT22;31474;45.332;10.230;2023-05-29T12:22:40;29.10;93.80
45765;DHT22;31474;45.332;10.230;2023-05-29T12:25:13;29.20;93.50
45765;DHT22;31474;45.332;10.230;2023-05-29T12:27:41;29.30;92.90
45765;DHT22;31474;45.332;10.230;2023-05-29T12:32:39;29.20;92.10
45765;DHT22;31474;45.332;10.230;2023-05-29T12:38:00;29.10;91.90
45765;DHT22;31474;45.332;10.230;2023-05-29T12:40:30;29.00;92.00
45765;DHT22;31474;45.332;10.230;2023-05-29T12:43:00;28.90;92.30
45765;DHT22;31474;45.332;10.230;2023-05-29T12:45:27;28.80;91.80
45765;DHT22;31474;45.332;10.230;2023-05-29T12:48:00;28.60;92.50
45765;DHT22;31474;45.332;10.230;2023-05-29T12:50:29;28.70;93.10
45765;DHT22;31474;45.332;10.230;2023-05-29T12:53:03;28.70;93.00
45765;DHT22;31474;45.332;10.230;2023-05-29T12:55:31;28.80;92.50
45765;DHT22;31474;45.332;10.230;2023-05-29T12:58:16;28.90;93.20
45765;DHT22;31474;45.332;10.230;2023-05-29T13:00:43;28.90;91.80
45765;DHT22;31474;45.332;10.230;2023-05-29T13:03:09;29.10;92.70
45765;DHT22;31474;45.332;10.230;2023-05-29T13:05:38;29.00;92.20
45765;DHT22;31474;45.332;10.230;2023-05-29T13:08:04;28.90;91.10
45765;DHT22;31474;45.332;10.230;2023-05-29T13:10:33;28.80;91.90
45765;DHT22;31474;45.332;10.230;2023-05-29T13:13:00;28.80;92.30
45765;DHT22;31474;45.332;10.230;2023-05-29T13:15:26;28.80;91.70
45765;DHT22;31474;45.332;10.230;2023-05-29T13:17:52;28.90;91.80
45765;DHT22;31474;45.332;10.230;2023-05-29T13:20:19;29.00;92.00
45765;DHT22;31474;45.332;10.230;2023-05-29T13:22:46;29.10;91.90
45765;DHT22;31474;45.332;10.230;2023-05-29T13:25:15;29.10;91.80
45765;DHT22;31474;45.332;10.230;2023-05-29T13:27:43;29.30;91.40
45765;DHT22;31474;45.332;10.230;2023-05-29T13:30:10;29.20;90.50
45765;DHT22;31474;45.332;10.230;2023-05-29T13:32:35;29.00;91.40
45765;DHT22;31474;45.332;10.230;2023-05-29T13:35:02;28.90;91.80
45765;DHT22;31474;45.332;10.230;2023-05-29T13:37:28;28.80;91.70
45765;DHT22;31474;45.332;10.230;2023-05-29T13:39:54;28.80;91.80
45765;DHT22;31474;45.332;10.230;2023-05-29T13:42:20;28.80;91.20
45765;DHT22;31474;45.332;10.230;2023-05-29T13:44:47;28.70;90.60
45765;DHT22;31474;45.332;10.230;2023-05-29T13:47:13;28.60;90.90
45765;DHT22;31474;45.332;10.230;2023-05-29T13:49:39;28.60;90.90
45765;DHT22;31474;45.332;10.230;2023-05-29T13:52:05;28.50;91.00
45765;DHT22;31474;45.332;10.230;2023-05-29T13:54:31;28.50;91.00
45765;DHT22;31474;45.332;10.230;2023-05-29T13:57:04;28.50;90.70
45765;DHT22;31474;45.332;10.230;2023-05-29T13:59:31;28.40;90.90
45765;DHT22;31474;45.332;10.230;2023-05-29T14:01:57;28.50;91.40
45765;DHT22;31474;45.332;10.230;2023-05-29T14:04:23;28.60;91.10
45765;DHT22;31474;45.332;10.230;2023-05-29T14:06:50;28.60;91.40
45765;DHT22;31474;45.332;10.230;2023-05-29T14:09:16;28.70;91.50
45765;DHT22;31474;45.332;10.230;2023-05-29T14:11:41;28.70;92.10
45765;DHT22;31474;45.332;10.230;2023-05-29T14:14:07;28.80;91.00
45765;DHT22;31474;45.332;10.230;2023-05-29T14:16:33;28.70;91.30
45765;DHT22;31474;45.332;10.230;2023-05-29T14:19:00;28.80;91.20
45765;DHT22;31474;45.332;10.230;2023-05-29T14:21:25;28.80;91.90
45765;DHT22;31474;45.332;10.230;2023-05-29T14:23:51;28.90;91.50
45765;DHT22;31474;45.332;10.230;2023-05-29T14:26:17;28.90;91.10
45765;DHT22;31474;45.332;10.230;2023-05-29T14:28:44;29.00;91.10
45765;DHT22;31474;45.332;10.230;2023-05-29T14:31:10;28.90;90.90
45765;DHT22;31474;45.332;10.230;2023-05-29T14:33:35;29.00;90.60
45765;DHT22;31474;45.332;10.230;2023-05-29T14:36:02;28.80;90.40
45765;DHT22;31474;45.332;10.230;2023-05-29T14:38:28;28.80;91.00
45765;DHT22;31474;45.332;10.230;2023-05-29T14:40:54;28.90;91.50
45765;DHT22;31474;45.332;10.230;2023-05-29T14:43:19;29.10;91.30
45765;DHT22;31474;45.332;10.230;2023-05-29T14:45:45;29.10;90.50
45765;DHT22;31474;45.332;10.230;2023-05-29T14:48:11;29.00;91.00
45765;DHT22;31474;45.332;10.230;2023-05-29T14:50:37;28.90;90.50
45765;DHT22;31474;45.332;10.230;2023-05-29T14:53:03;28.90;90.80
45765;DHT22;31474;45.332;10.230;2023-05-29T14:55:28;28.90;91.60
45765;DHT22;31474;45.332;10.230;2023-05-29T14:57:56;28.90;91.10
45765;DHT22;31474;45.332;10.230;2023-05-29T15:00:21;28.80;91.40
45765;DHT22;31474;45.332;10.230;2023-05-29T15:02:47;28.80;91.30
45765;DHT22;31474;45.332;10.230;2023-05-29T15:05:13;28.80;90.70
45765;DHT22;31474;45.332;10.230;2023-05-29T15:07:38;28.70;91.30
45765;DHT22;31474;45.332;10.230;2023-05-29T15:10:04;28.70;91.10
45765;DHT22;31474;45.332;10.230;2023-05-29T15:12:31;28.70;91.20
45765;DHT22;31474;45.332;10.230;2023-05-29T15:14:57;28.60;90.90
45765;DHT22;31474;45.332;10.230;2023-05-29T15:17:23;28.50;91.50
45765;DHT22;31474;45.332;10.230;2023-05-29T15:19:49;28.50;91.50
45765;DHT22;31474;45.332;10.230;2023-05-29T15:22:14;28.50;91.70
45765;DHT22;31474;45.332;10.230;2023-05-29T15:24:40;28.50;91.80
45765;DHT22;31474;45.332;10.230;2023-05-29T15:27:06;28.50;91.90
45765;DHT22;31474;45.332;10.230;2023-05-29T15:29:35;28.40;91.50
45765;DHT22;31474;45.332;10.230;2023-05-29T15:32:02;28.40;91.70
45765;DHT22;31474;45.332;10.230;2023-05-29T15:34:28;28.40;91.30
45765;DHT22;31474;45.332;10.230;2023-05-29T15:36:54;28.40;91.10
45765;DHT22;31474;45.332;10.230;2023-05-29T15:39:20;28.40;91.10
45765;DHT22;31474;45.332;10.230;2023-05-29T15:41:47;28.40;91.20
45765;DHT22;31474;45.332;10.230;2023-05-29T15:44:12;28.40;91.40
45765;DHT22;31474;45.332;10.230;2023-05-29T15:46:38;28.40;91.10
45765;DHT22;31474;45.332;10.230;2023-05-29T15:49:04;28.50;91.30